This is the latest recevied weather packets stored in our database for station/object WD4LSS. If no packets are shown the sender has not sent any weather packets the latest 10 day(s).
| Time | Temp. | Humidity | Pressure | Rain* | Wind** | Luminosity | Snow |
|---|---|---|---|---|---|---|---|
| 1777998315 | 25° C | 47% | 1016.7 hPa | 0 mm | - | - | - |
| 1777996817 | 24.44° C | 49% | 1016.9 hPa | 0 mm | - | - | - |
| 1777992937 | 22.22° C | 60% | 1017 hPa | 0 mm | - | - | - |
| 1777992037 | 22.22° C | 60% | 1017.1 hPa | 0 mm | - | - | - |
| 1777991717 | 21.67° C | 60% | 1016.9 hPa | 0 mm | - | - | - |
| 1777990517 | 20.56° C | 65% | 1016.9 hPa | 0 mm | - | - | - |
| 1777989317 | 18.89° C | 70% | 1017 hPa | 0 mm | - | - | - |
| 1777988437 | 17.78° C | 72% | 1017 hPa | 0 mm | - | - | - |
| 1777987517 | 16.67° C | 75% | 1016.9 hPa | 0 mm | - | - | - |
| 1777986917 | 16.11° C | 76% | 1017 hPa | 0 mm | - | - | - |
| 1777986617 | 16.11° C | 76% | 1017.1 hPa | 0 mm | - | - | - |
| 1777985717 | 15° C | 79% | 1017.1 hPa | 0 mm | - | - | - |
| 1777984817 | 14.44° C | 82% | 1016.9 hPa | 0 mm | - | - | - |
| 1777983317 | 12.22° C | 88% | 1016.6 hPa | 0 mm | - | - | - |
| 1777983017 | 11.67° C | 89% | 1016.5 hPa | 0 mm | - | - | - |
| 1777981817 | 9.44° C | 91% | 1016.6 hPa | 0 mm | - | - | - |
| 1777981216 | 8.89° C | 90% | 1016.4 hPa | 0 mm | - | - | - |
| 1777980617 | 8.89° C | 90% | 1016.3 hPa | 0 mm | - | - | - |
| 1777975822 | 9.44° C | 85% | 1016.3 hPa | 0 mm | - | - | - |
| 1777974922 | 9.44° C | 83% | 1016.2 hPa | 0 mm | - | - | - |
| 1777973722 | 10° C | 82% | 1016.1 hPa | 0 mm | - | - | - |
| 1777968916 | 11.67° C | 75% | 1015.5 hPa | 0 mm | - | - | - |
| 1777968016 | 12.22° C | 73% | 1015.6 hPa | 0 mm | - | - | - |
| 1777967436 | 12.22° C | 72% | 1015.4 hPa | 0 mm | - | - | - |
| 1777967116 | 12.22° C | 72% | 1015.5 hPa | 0 mm | - | - | - |
* Rain latest hour (hover to see other rain measurements)
** Current wind speed in m/s (hover to see current wind gust speed)